sensor_id;sensor_type;location;lat;lon;timestamp;temperature;humidity
17726;DHT22;8983;53.156;17.960;2022-07-29T00:02:10;17.80;99.90
17726;DHT22;8983;53.156;17.960;2022-07-29T00:04:38;17.80;99.90
17726;DHT22;8983;53.156;17.960;2022-07-29T00:07:06;17.80;99.90
17726;DHT22;8983;53.156;17.960;2022-07-29T00:09:34;17.80;99.90
17726;DHT22;8983;53.156;17.960;2022-07-29T00:12:20;17.80;99.90
17726;DHT22;8983;53.156;17.960;2022-07-29T00:14:53;17.80;99.90
17726;DHT22;8983;53.156;17.960;2022-07-29T00:17:21;17.70;99.90
17726;DHT22;8983;53.156;17.960;2022-07-29T00:19:49;17.70;99.90
17726;DHT22;8983;53.156;17.960;2022-07-29T00:22:17;17.60;99.90
17726;DHT22;8983;53.156;17.960;2022-07-29T00:24:47;17.60;99.90
17726;DHT22;8983;53.156;17.960;2022-07-29T00:27:16;17.50;99.90
17726;DHT22;8983;53.156;17.960;2022-07-29T00:29:46;17.50;99.90
17726;DHT22;8983;53.156;17.960;2022-07-29T00:32:14;17.40;99.90
17726;DHT22;8983;53.156;17.960;2022-07-29T00:34:42;17.40;99.90
17726;DHT22;8983;53.156;17.960;2022-07-29T00:37:28;17.50;99.90
17726;DHT22;8983;53.156;17.960;2022-07-29T00:39:56;17.40;99.90
17726;DHT22;8983;53.156;17.960;2022-07-29T00:42:24;17.40;99.90
17726;DHT22;8983;53.156;17.960;2022-07-29T00:44:54;17.40;99.90
17726;DHT22;8983;53.156;17.960;2022-07-29T00:47:22;17.40;99.90
17726;DHT22;8983;53.156;17.960;2022-07-29T00:49:50;17.40;99.90
17726;DHT22;8983;53.156;17.960;2022-07-29T00:52:18;17.40;99.90
17726;DHT22;8983;53.156;17.960;2022-07-29T00:54:46;17.30;99.90
17726;DHT22;8983;53.156;17.960;2022-07-29T00:57:14;17.40;99.90
17726;DHT22;8983;53.156;17.960;2022-07-29T00:59:42;17.30;99.90
17726;DHT22;8983;53.156;17.960;2022-07-29T01:02:12;17.30;99.90
17726;DHT22;8983;53.156;17.960;2022-07-29T01:04:40;17.30;99.90
17726;DHT22;8983;53.156;17.960;2022-07-29T01:07:08;17.20;99.90
17726;DHT22;8983;53.156;17.960;2022-07-29T01:13:29;17.20;99.90
17726;DHT22;8983;53.156;17.960;2022-07-29T01:16:01;17.10;99.90
17726;DHT22;8983;53.156;17.960;2022-07-29T01:18:36;17.10;99.90
17726;DHT22;8983;53.156;17.960;2022-07-29T01:21:43;17.00;99.90
17726;DHT22;8983;53.156;17.960;2022-07-29T01:24:43;17.00;99.90
17726;DHT22;8983;53.156;17.960;2022-07-29T01:27:32;17.00;99.90
17726;DHT22;8983;53.156;17.960;2022-07-29T01:30:06;17.00;99.90
17726;DHT22;8983;53.156;17.960;2022-07-29T01:32:37;17.00;99.90
17726;DHT22;8983;53.156;17.960;2022-07-29T01:35:09;17.00;99.90
17726;DHT22;8983;53.156;17.960;2022-07-29T01:37:44;17.00;99.90
17726;DHT22;8983;53.156;17.960;2022-07-29T01:40:19;17.00;99.90
17726;DHT22;8983;53.156;17.960;2022-07-29T01:42:51;17.00;99.90
17726;DHT22;8983;53.156;17.960;2022-07-29T01:45:24;17.00;99.90
17726;DHT22;8983;53.156;17.960;2022-07-29T01:47:59;17.00;99.90
17726;DHT22;8983;53.156;17.960;2022-07-29T01:50:33;16.90;99.90
17726;DHT22;8983;53.156;17.960;2022-07-29T01:53:04;16.80;99.90
17726;DHT22;8983;53.156;17.960;2022-07-29T01:55:38;16.80;99.90
17726;DHT22;8983;53.156;17.960;2022-07-29T01:58:08;16.70;99.90
17726;DHT22;8983;53.156;17.960;2022-07-29T02:00:38;16.70;99.90
17726;DHT22;8983;53.156;17.960;2022-07-29T02:03:11;16.70;99.90
17726;DHT22;8983;53.156;17.960;2022-07-29T02:05:42;16.70;99.90
17726;DHT22;8983;53.156;17.960;2022-07-29T02:08:12;16.80;99.90
17726;DHT22;8983;53.156;17.960;2022-07-29T02:10:42;16.80;99.90
17726;DHT22;8983;53.156;17.960;2022-07-29T02:13:11;16.80;99.90
17726;DHT22;8983;53.156;17.960;2022-07-29T02:15:43;16.80;99.90
17726;DHT22;8983;53.156;17.960;2022-07-29T02:18:15;16.80;99.90
17726;DHT22;8983;53.156;17.960;2022-07-29T02:20:46;16.80;99.90
17726;DHT22;8983;53.156;17.960;2022-07-29T02:23:17;16.70;99.90
17726;DHT22;8983;53.156;17.960;2022-07-29T02:25:48;16.60;99.90
17726;DHT22;8983;53.156;17.960;2022-07-29T02:28:19;16.60;99.90
17726;DHT22;8983;53.156;17.960;2022-07-29T02:30:50;16.60;99.90
17726;DHT22;8983;53.156;17.960;2022-07-29T02:33:20;16.60;99.90
17726;DHT22;8983;53.156;17.960;2022-07-29T02:35:50;16.60;99.90
17726;DHT22;8983;53.156;17.960;2022-07-29T02:38:20;16.50;99.90
17726;DHT22;8983;53.156;17.960;2022-07-29T02:41:10;16.40;99.90
17726;DHT22;8983;53.156;17.960;2022-07-29T02:43:39;16.20;99.90
17726;DHT22;8983;53.156;17.960;2022-07-29T02:46:14;16.20;99.90
17726;DHT22;8983;53.156;17.960;2022-07-29T02:48:58;16.20;99.90
17726;DHT22;8983;53.156;17.960;2022-07-29T02:51:32;16.10;99.90
17726;DHT22;8983;53.156;17.960;2022-07-29T02:54:11;16.00;99.90
17726;DHT22;8983;53.156;17.960;2022-07-29T02:56:44;16.00;99.90
17726;DHT22;8983;53.156;17.960;2022-07-29T02:59:14;16.00;99.90
17726;DHT22;8983;53.156;17.960;2022-07-29T03:01:45;16.10;99.90
17726;DHT22;8983;53.156;17.960;2022-07-29T03:04:15;16.10;99.90
17726;DHT22;8983;53.156;17.960;2022-07-29T03:06:45;16.10;99.90
17726;DHT22;8983;53.156;17.960;2022-07-29T03:09:14;16.20;99.90
17726;DHT22;8983;53.156;17.960;2022-07-29T03:11:43;16.20;99.90
17726;DHT22;8983;53.156;17.960;2022-07-29T03:14:17;16.30;99.90
17726;DHT22;8983;53.156;17.960;2022-07-29T03:16:48;16.30;99.90
17726;DHT22;8983;53.156;17.960;2022-07-29T03:19:16;16.30;99.90
17726;DHT22;8983;53.156;17.960;2022-07-29T03:21:45;16.30;99.90
17726;DHT22;8983;53.156;17.960;2022-07-29T03:24:25;16.20;99.90
17726;DHT22;8983;53.156;17.960;2022-07-29T03:26:54;16.10;99.90
17726;DHT22;8983;53.156;17.960;2022-07-29T03:29:23;16.00;99.90
17726;DHT22;8983;53.156;17.960;2022-07-29T03:32:01;16.00;99.90
17726;DHT22;8983;53.156;17.960;2022-07-29T03:34:34;16.00;99.90
17726;DHT22;8983;53.156;17.960;2022-07-29T03:37:03;16.00;99.90
17726;DHT22;8983;53.156;17.960;2022-07-29T03:39:35;16.00;99.90
17726;DHT22;8983;53.156;17.960;2022-07-29T03:42:05;16.00;99.90
17726;DHT22;8983;53.156;17.960;2022-07-29T03:44:34;15.90;99.90
17726;DHT22;8983;53.156;17.960;2022-07-29T03:47:06;15.90;99.90
17726;DHT22;8983;53.156;17.960;2022-07-29T03:49:36;15.90;99.90
17726;DHT22;8983;53.156;17.960;2022-07-29T03:52:05;15.90;99.90
17726;DHT22;8983;53.156;17.960;2022-07-29T03:54:34;15.90;99.90
17726;DHT22;8983;53.156;17.960;2022-07-29T03:57:04;15.80;99.90
17726;DHT22;8983;53.156;17.960;2022-07-29T03:59:33;15.90;99.90
17726;DHT22;8983;53.156;17.960;2022-07-29T04:02:03;15.90;99.90
17726;DHT22;8983;53.156;17.960;2022-07-29T04:04:34;15.90;99.90
17726;DHT22;8983;53.156;17.960;2022-07-29T04:07:03;16.10;99.90
17726;DHT22;8983;53.156;17.960;2022-07-29T04:09:31;16.10;99.90
17726;DHT22;8983;53.156;17.960;2022-07-29T04:11:59;16.20;99.90
17726;DHT22;8983;53.156;17.960;2022-07-29T04:14:30;16.30;99.90
17726;DHT22;8983;53.156;17.960;2022-07-29T04:16:59;16.30;99.90
17726;DHT22;8983;53.156;17.960;2022-07-29T04:19:27;16.30;99.90
17726;DHT22;8983;53.156;17.960;2022-07-29T04:21:57;16.30;99.90
17726;DHT22;8983;53.156;17.960;2022-07-29T04:24:25;16.40;99.90
17726;DHT22;8983;53.156;17.960;2022-07-29T04:26:53;16.40;99.90
17726;DHT22;8983;53.156;17.960;2022-07-29T04:29:22;16.50;99.90
17726;DHT22;8983;53.156;17.960;2022-07-29T04:31:50;16.60;99.90
17726;DHT22;8983;53.156;17.960;2022-07-29T04:34:18;16.60;99.90
17726;DHT22;8983;53.156;17.960;2022-07-29T04:36:46;16.60;99.90
17726;DHT22;8983;53.156;17.960;2022-07-29T04:39:16;16.60;99.90
17726;DHT22;8983;53.156;17.960;2022-07-29T04:41:49;16.60;99.90
17726;DHT22;8983;53.156;17.960;2022-07-29T04:44:20;16.70;99.90
17726;DHT22;8983;53.156;17.960;2022-07-29T04:46:54;16.70;99.90
17726;DHT22;8983;53.156;17.960;2022-07-29T04:49:22;16.70;99.90
17726;DHT22;8983;53.156;17.960;2022-07-29T04:51:50;16.80;99.90
17726;DHT22;8983;53.156;17.960;2022-07-29T04:54:20;16.90;99.90
17726;DHT22;8983;53.156;17.960;2022-07-29T04:56:48;16.90;99.90
17726;DHT22;8983;53.156;17.960;2022-07-29T04:59:16;17.00;99.90
17726;DHT22;8983;53.156;17.960;2022-07-29T05:01:44;17.00;99.90
17726;DHT22;8983;53.156;17.960;2022-07-29T05:04:12;17.00;99.90
17726;DHT22;8983;53.156;17.960;2022-07-29T05:06:40;17.10;99.90
17726;DHT22;8983;53.156;17.960;2022-07-29T05:09:08;17.10;99.90
17726;DHT22;8983;53.156;17.960;2022-07-29T05:11:38;17.10;99.90
17726;DHT22;8983;53.156;17.960;2022-07-29T05:14:06;17.20;99.90
17726;DHT22;8983;53.156;17.960;2022-07-29T05:16:34;17.20;99.90
17726;DHT22;8983;53.156;17.960;2022-07-29T05:19:02;17.30;99.90
17726;DHT22;8983;53.156;17.960;2022-07-29T05:21:30;17.20;99.90
17726;DHT22;8983;53.156;17.960;2022-07-29T05:23:59;17.20;99.90
17726;DHT22;8983;53.156;17.960;2022-07-29T05:26:27;17.20;99.90
17726;DHT22;8983;53.156;17.960;2022-07-29T05:28:56;17.20;99.90
17726;DHT22;8983;53.156;17.960;2022-07-29T05:31:24;17.20;99.90
17726;DHT22;8983;53.156;17.960;2022-07-29T05:33:52;17.20;99.90
17726;DHT22;8983;53.156;17.960;2022-07-29T05:36:20;17.20;99.90
17726;DHT22;8983;53.156;17.960;2022-07-29T05:38:49;17.20;99.90
17726;DHT22;8983;53.156;17.960;2022-07-29T05:41:18;17.30;99.90
17726;DHT22;8983;53.156;17.960;2022-07-29T05:43:46;17.30;99.90
17726;DHT22;8983;53.156;17.960;2022-07-29T05:46:16;17.30;99.90
17726;DHT22;8983;53.156;17.960;2022-07-29T05:48:44;17.40;99.90
17726;DHT22;8983;53.156;17.960;2022-07-29T05:51:12;17.40;99.90
17726;DHT22;8983;53.156;17.960;2022-07-29T05:53:40;17.50;99.90
17726;DHT22;8983;53.156;17.960;2022-07-29T05:56:08;17.60;99.90
17726;DHT22;8983;53.156;17.960;2022-07-29T05:58:36;17.60;99.90
17726;DHT22;8983;53.156;17.960;2022-07-29T06:01:04;17.70;99.90
17726;DHT22;8983;53.156;17.960;2022-07-29T06:03:34;17.70;99.90
17726;DHT22;8983;53.156;17.960;2022-07-29T06:06:04;17.80;99.90
17726;DHT22;8983;53.156;17.960;2022-07-29T06:08:34;17.80;99.90
17726;DHT22;8983;53.156;17.960;2022-07-29T06:11:03;17.90;99.90
17726;DHT22;8983;53.156;17.960;2022-07-29T06:13:32;18.00;99.90
17726;DHT22;8983;53.156;17.960;2022-07-29T06:16:00;18.00;99.90
17726;DHT22;8983;53.156;17.960;2022-07-29T06:18:28;18.10;99.90
17726;DHT22;8983;53.156;17.960;2022-07-29T06:20:57;18.20;99.90
17726;DHT22;8983;53.156;17.960;2022-07-29T06:23:26;18.30;99.90
17726;DHT22;8983;53.156;17.960;2022-07-29T06:25:54;18.30;99.90
17726;DHT22;8983;53.156;17.960;2022-07-29T06:28:22;18.40;99.90
17726;DHT22;8983;53.156;17.960;2022-07-29T06:30:50;18.40;99.90
17726;DHT22;8983;53.156;17.960;2022-07-29T06:33:18;18.50;99.90
17726;DHT22;8983;53.156;17.960;2022-07-29T06:35:46;18.60;99.90
17726;DHT22;8983;53.156;17.960;2022-07-29T06:38:21;18.60;99.90
17726;DHT22;8983;53.156;17.960;2022-07-29T06:40:56;18.70;99.90
17726;DHT22;8983;53.156;17.960;2022-07-29T06:43:33;18.80;99.90
17726;DHT22;8983;53.156;17.960;2022-07-29T06:46:18;18.80;99.90
17726;DHT22;8983;53.156;17.960;2022-07-29T06:48:47;18.90;99.90
17726;DHT22;8983;53.156;17.960;2022-07-29T06:51:16;19.00;99.90
17726;DHT22;8983;53.156;17.960;2022-07-29T06:53:51;19.00;99.90
17726;DHT22;8983;53.156;17.960;2022-07-29T06:56:27;19.10;99.90
17726;DHT22;8983;53.156;17.960;2022-07-29T06:58:56;19.10;99.90
17726;DHT22;8983;53.156;17.960;2022-07-29T07:01:24;19.20;99.90
17726;DHT22;8983;53.156;17.960;2022-07-29T07:03:52;19.20;99.90
17726;DHT22;8983;53.156;17.960;2022-07-29T07:06:20;19.30;99.90
17726;DHT22;8983;53.156;17.960;2022-07-29T07:08:49;19.30;99.90
17726;DHT22;8983;53.156;17.960;2022-07-29T07:11:17;19.40;99.90
17726;DHT22;8983;53.156;17.960;2022-07-29T07:13:45;19.40;99.90
17726;DHT22;8983;53.156;17.960;2022-07-29T07:16:13;19.40;99.90
17726;DHT22;8983;53.156;17.960;2022-07-29T07:18:42;19.50;99.90
17726;DHT22;8983;53.156;17.960;2022-07-29T07:21:12;19.60;99.90
17726;DHT22;8983;53.156;17.960;2022-07-29T07:23:45;19.70;99.90
17726;DHT22;8983;53.156;17.960;2022-07-29T07:26:15;19.70;99.90
17726;DHT22;8983;53.156;17.960;2022-07-29T07:28:43;19.80;99.90
17726;DHT22;8983;53.156;17.960;2022-07-29T07:31:11;19.80;99.90
17726;DHT22;8983;53.156;17.960;2022-07-29T07:33:39;19.90;99.90
17726;DHT22;8983;53.156;17.960;2022-07-29T07:36:07;19.90;99.90
17726;DHT22;8983;53.156;17.960;2022-07-29T07:38:35;20.00;99.90
17726;DHT22;8983;53.156;17.960;2022-07-29T07:41:03;20.00;99.90
17726;DHT22;8983;53.156;17.960;2022-07-29T07:43:33;20.10;99.90
17726;DHT22;8983;53.156;17.960;2022-07-29T07:46:01;20.30;99.90
17726;DHT22;8983;53.156;17.960;2022-07-29T07:48:29;20.30;99.90
17726;DHT22;8983;53.156;17.960;2022-07-29T07:50:57;20.40;99.90
17726;DHT22;8983;53.156;17.960;2022-07-29T07:53:25;20.40;99.90
17726;DHT22;8983;53.156;17.960;2022-07-29T07:55:53;20.50;99.90
17726;DHT22;8983;53.156;17.960;2022-07-29T07:58:40;20.60;99.90
17726;DHT22;8983;53.156;17.960;2022-07-29T08:01:08;20.70;99.90
17726;DHT22;8983;53.156;17.960;2022-07-29T08:03:37;20.70;99.90
17726;DHT22;8983;53.156;17.960;2022-07-29T08:06:05;20.80;99.90
17726;DHT22;8983;53.156;17.960;2022-07-29T08:08:33;21.00;99.90
17726;DHT22;8983;53.156;17.960;2022-07-29T08:11:01;21.00;99.90
17726;DHT22;8983;53.156;17.960;2022-07-29T08:13:35;21.10;99.90
17726;DHT22;8983;53.156;17.960;2022-07-29T08:16:06;21.10;99.90
17726;DHT22;8983;53.156;17.960;2022-07-29T08:18:44;21.20;99.90
17726;DHT22;8983;53.156;17.960;2022-07-29T08:21:13;21.30;99.90
17726;DHT22;8983;53.156;17.960;2022-07-29T08:23:43;21.40;99.90
17726;DHT22;8983;53.156;17.960;2022-07-29T08:26:27;21.40;99.90
17726;DHT22;8983;53.156;17.960;2022-07-29T08:28:55;21.50;99.90
17726;DHT22;8983;53.156;17.960;2022-07-29T08:31:24;21.50;99.90
17726;DHT22;8983;53.156;17.960;2022-07-29T08:33:53;21.50;99.90
17726;DHT22;8983;53.156;17.960;2022-07-29T08:36:22;21.60;99.90
17726;DHT22;8983;53.156;17.960;2022-07-29T08:38:51;21.70;99.90
17726;DHT22;8983;53.156;17.960;2022-07-29T08:41:19;21.70;99.90
17726;DHT22;8983;53.156;17.960;2022-07-29T08:43:48;21.70;99.90
17726;DHT22;8983;53.156;17.960;2022-07-29T08:46:16;21.80;99.90
17726;DHT22;8983;53.156;17.960;2022-07-29T08:48:47;21.80;99.90
17726;DHT22;8983;53.156;17.960;2022-07-29T08:51:17;21.90;99.90
17726;DHT22;8983;53.156;17.960;2022-07-29T08:53:47;22.00;99.90
17726;DHT22;8983;53.156;17.960;2022-07-29T08:56:16;22.20;99.90
17726;DHT22;8983;53.156;17.960;2022-07-29T08:58:46;22.30;99.90
17726;DHT22;8983;53.156;17.960;2022-07-29T09:01:22;22.40;99.90
17726;DHT22;8983;53.156;17.960;2022-07-29T09:04:05;22.60;99.90
17726;DHT22;8983;53.156;17.960;2022-07-29T09:06:39;22.80;99.90
17726;DHT22;8983;53.156;17.960;2022-07-29T09:09:09;23.00;99.90
17726;DHT22;8983;53.156;17.960;2022-07-29T09:11:38;23.20;99.90
17726;DHT22;8983;53.156;17.960;2022-07-29T09:14:06;23.30;99.90
17726;DHT22;8983;53.156;17.960;2022-07-29T09:16:45;23.50;99.90
17726;DHT22;8983;53.156;17.960;2022-07-29T09:19:25;23.70;99.90
17726;DHT22;8983;53.156;17.960;2022-07-29T09:21:54;23.90;99.90
17726;DHT22;8983;53.156;17.960;2022-07-29T09:24:26;24.00;99.90
17726;DHT22;8983;53.156;17.960;2022-07-29T09:26:54;24.20;99.80
17726;DHT22;8983;53.156;17.960;2022-07-29T09:29:23;24.30;99.10
17726;DHT22;8983;53.156;17.960;2022-07-29T09:31:53;24.50;98.40
17726;DHT22;8983;53.156;17.960;2022-07-29T09:34:24;24.60;97.20
17726;DHT22;8983;53.156;17.960;2022-07-29T09:36:53;24.60;95.80
17726;DHT22;8983;53.156;17.960;2022-07-29T09:39:30;24.60;95.40
17726;DHT22;8983;53.156;17.960;2022-07-29T09:41:59;24.70;95.30
17726;DHT22;8983;53.156;17.960;2022-07-29T09:44:41;24.70;94.70
17726;DHT22;8983;53.156;17.960;2022-07-29T09:47:09;24.80;93.90
17726;DHT22;8983;53.156;17.960;2022-07-29T09:49:53;24.80;93.70
17726;DHT22;8983;53.156;17.960;2022-07-29T09:52:21;24.80;93.30
17726;DHT22;8983;53.156;17.960;2022-07-29T09:54:49;24.80;93.00
17726;DHT22;8983;53.156;17.960;2022-07-29T09:57:25;24.90;92.40
17726;DHT22;8983;53.156;17.960;2022-07-29T09:59:58;24.90;91.60
17726;DHT22;8983;53.156;17.960;2022-07-29T10:02:28;25.00;91.40
17726;DHT22;8983;53.156;17.960;2022-07-29T10:05:00;25.00;90.90
17726;DHT22;8983;53.156;17.960;2022-07-29T10:07:43;25.00;90.60
17726;DHT22;8983;53.156;17.960;2022-07-29T10:10:20;25.00;90.10
17726;DHT22;8983;53.156;17.960;2022-07-29T10:12:50;25.00;90.10
17726;DHT22;8983;53.156;17.960;2022-07-29T10:15:19;25.00;89.90
17726;DHT22;8983;53.156;17.960;2022-07-29T10:17:49;25.10;89.40
17726;DHT22;8983;53.156;17.960;2022-07-29T10:20:19;25.10;88.50
17726;DHT22;8983;53.156;17.960;2022-07-29T10:22:47;25.10;87.90
17726;DHT22;8983;53.156;17.960;2022-07-29T10:25:20;25.10;87.10
17726;DHT22;8983;53.156;17.960;2022-07-29T10:27:49;25.10;86.60
17726;DHT22;8983;53.156;17.960;2022-07-29T10:30:18;25.10;86.70
17726;DHT22;8983;53.156;17.960;2022-07-29T10:33:05;25.10;86.50
17726;DHT22;8983;53.156;17.960;2022-07-29T10:36:02;25.20;86.50
17726;DHT22;8983;53.156;17.960;2022-07-29T10:38:45;25.30;86.00
17726;DHT22;8983;53.156;17.960;2022-07-29T10:42:02;25.20;85.20
17726;DHT22;8983;53.156;17.960;2022-07-29T10:44:35;25.10;85.10
17726;DHT22;8983;53.156;17.960;2022-07-29T10:47:07;25.00;85.10
17726;DHT22;8983;53.156;17.960;2022-07-29T10:49:35;25.00;85.00
17726;DHT22;8983;53.156;17.960;2022-07-29T10:52:09;25.10;84.80
17726;DHT22;8983;53.156;17.960;2022-07-29T10:54:39;25.10;84.60
17726;DHT22;8983;53.156;17.960;2022-07-29T10:57:18;25.10;84.10
17726;DHT22;8983;53.156;17.960;2022-07-29T11:00:31;25.10;83.50
17726;DHT22;8983;53.156;17.960;2022-07-29T11:03:00;25.10;82.60
17726;DHT22;8983;53.156;17.960;2022-07-29T11:05:54;25.10;82.70
17726;DHT22;8983;53.156;17.960;2022-07-29T11:08:27;25.10;82.10
17726;DHT22;8983;53.156;17.960;2022-07-29T11:14:03;25.20;80.90
17726;DHT22;8983;53.156;17.960;2022-07-29T11:17:01;25.20;80.50
17726;DHT22;8983;53.156;17.960;2022-07-29T11:19:32;25.40;79.80
17726;DHT22;8983;53.156;17.960;2022-07-29T11:22:01;25.40;79.70
17726;DHT22;8983;53.156;17.960;2022-07-29T11:24:32;25.40;79.10
17726;DHT22;8983;53.156;17.960;2022-07-29T11:27:13;25.30;78.40
17726;DHT22;8983;53.156;17.960;2022-07-29T11:29:53;25.30;77.70
17726;DHT22;8983;53.156;17.960;2022-07-29T11:32:23;25.30;77.10
17726;DHT22;8983;53.156;17.960;2022-07-29T11:35:14;25.30;76.80
17726;DHT22;8983;53.156;17.960;2022-07-29T11:37:45;25.30;76.70
17726;DHT22;8983;53.156;17.960;2022-07-29T11:40:22;25.40;77.40
17726;DHT22;8983;53.156;17.960;2022-07-29T11:42:51;25.40;76.30
17726;DHT22;8983;53.156;17.960;2022-07-29T11:45:25;25.50;75.70
17726;DHT22;8983;53.156;17.960;2022-07-29T11:48:18;25.50;75.10
17726;DHT22;8983;53.156;17.960;2022-07-29T11:50:58;25.50;75.30
17726;DHT22;8983;53.156;17.960;2022-07-29T11:53:28;25.60;75.30
17726;DHT22;8983;53.156;17.960;2022-07-29T11:56:21;25.60;74.40
17726;DHT22;8983;53.156;17.960;2022-07-29T11:59:02;25.60;73.70
17726;DHT22;8983;53.156;17.960;2022-07-29T12:01:34;25.70;73.30
17726;DHT22;8983;53.156;17.960;2022-07-29T12:04:03;25.80;72.90
17726;DHT22;8983;53.156;17.960;2022-07-29T12:06:32;25.90;72.50
17726;DHT22;8983;53.156;17.960;2022-07-29T12:09:07;26.10;72.40
17726;DHT22;8983;53.156;17.960;2022-07-29T12:11:42;26.20;71.70
17726;DHT22;8983;53.156;17.960;2022-07-29T12:14:25;26.20;71.40
17726;DHT22;8983;53.156;17.960;2022-07-29T12:16:53;26.20;70.70
17726;DHT22;8983;53.156;17.960;2022-07-29T12:19:22;26.30;70.20
17726;DHT22;8983;53.156;17.960;2022-07-29T12:21:52;26.40;69.80
17726;DHT22;8983;53.156;17.960;2022-07-29T12:24:23;26.40;69.30
17726;DHT22;8983;53.156;17.960;2022-07-29T12:26:56;26.40;68.70
17726;DHT22;8983;53.156;17.960;2022-07-29T12:29:24;26.30;68.20
17726;DHT22;8983;53.156;17.960;2022-07-29T12:32:02;26.20;67.90
17726;DHT22;8983;53.156;17.960;2022-07-29T12:34:40;26.20;67.80
17726;DHT22;8983;53.156;17.960;2022-07-29T12:37:09;26.20;67.90
17726;DHT22;8983;53.156;17.960;2022-07-29T12:39:37;26.20;67.70
17726;DHT22;8983;53.156;17.960;2022-07-29T12:42:12;26.20;67.40
17726;DHT22;8983;53.156;17.960;2022-07-29T12:44:45;26.20;67.40
17726;DHT22;8983;53.156;17.960;2022-07-29T12:47:14;26.20;67.40
17726;DHT22;8983;53.156;17.960;2022-07-29T12:49:42;26.20;67.10
17726;DHT22;8983;53.156;17.960;2022-07-29T12:52:27;26.20;66.60
17726;DHT22;8983;53.156;17.960;2022-07-29T12:54:55;26.30;66.50
17726;DHT22;8983;53.156;17.960;2022-07-29T12:57:25;26.30;66.30
17726;DHT22;8983;53.156;17.960;2022-07-29T13:00:14;26.40;65.90
17726;DHT22;8983;53.156;17.960;2022-07-29T13:02:43;26.50;65.60
17726;DHT22;8983;53.156;17.960;2022-07-29T13:05:12;26.60;65.60
17726;DHT22;8983;53.156;17.960;2022-07-29T13:07:40;26.80;65.50
17726;DHT22;8983;53.156;17.960;2022-07-29T13:10:23;26.80;65.00
17726;DHT22;8983;53.156;17.960;2022-07-29T13:13:04;27.20;64.70
17726;DHT22;8983;53.156;17.960;2022-07-29T13:18:01;28.30;62.10
17726;DHT22;8983;53.156;17.960;2022-07-29T13:20:29;28.90;61.50
17726;DHT22;8983;53.156;17.960;2022-07-29T13:22:59;29.40;60.80
17726;DHT22;8983;53.156;17.960;2022-07-29T13:25:29;29.90;59.50
17726;DHT22;8983;53.156;17.960;2022-07-29T13:27:59;30.40;58.40
17726;DHT22;8983;53.156;17.960;2022-07-29T13:30:28;30.80;57.80
17726;DHT22;8983;53.156;17.960;2022-07-29T13:32:56;31.20;56.60
17726;DHT22;8983;53.156;17.960;2022-07-29T13:35:25;31.40;56.10
17726;DHT22;8983;53.156;17.960;2022-07-29T13:37:56;31.60;55.00
17726;DHT22;8983;53.156;17.960;2022-07-29T13:40:24;31.50;53.70
17726;DHT22;8983;53.156;17.960;2022-07-29T13:42:52;31.40;53.10
17726;DHT22;8983;53.156;17.960;2022-07-29T13:45:20;31.40;52.90
17726;DHT22;8983;53.156;17.960;2022-07-29T13:47:50;31.40;52.80
17726;DHT22;8983;53.156;17.960;2022-07-29T13:50:18;31.60;52.60
17726;DHT22;8983;53.156;17.960;2022-07-29T13:52:46;31.50;51.70
17726;DHT22;8983;53.156;17.960;2022-07-29T13:55:15;31.50;51.90
17726;DHT22;8983;53.156;17.960;2022-07-29T13:57:43;31.60;51.70
17726;DHT22;8983;53.156;17.960;2022-07-29T14:00:12;31.80;51.60
17726;DHT22;8983;53.156;17.960;2022-07-29T14:02:40;32.00;51.50
17726;DHT22;8983;53.156;17.960;2022-07-29T14:05:09;32.10;51.30
17726;DHT22;8983;53.156;17.960;2022-07-29T14:07:37;32.30;51.30
17726;DHT22;8983;53.156;17.960;2022-07-29T14:10:07;32.30;50.90
17726;DHT22;8983;53.156;17.960;2022-07-29T14:12:35;32.30;50.40
17726;DHT22;8983;53.156;17.960;2022-07-29T14:15:03;32.00;49.60
17726;DHT22;8983;53.156;17.960;2022-07-29T14:17:31;31.80;49.60
17726;DHT22;8983;53.156;17.960;2022-07-29T14:20:00;31.80;49.10
17726;DHT22;8983;53.156;17.960;2022-07-29T14:22:29;31.20;49.10
17726;DHT22;8983;53.156;17.960;2022-07-29T14:24:57;30.80;50.10
17726;DHT22;8983;53.156;17.960;2022-07-29T14:27:41;31.20;49.80
17726;DHT22;8983;53.156;17.960;2022-07-29T14:30:09;31.70;49.40
17726;DHT22;8983;53.156;17.960;2022-07-29T14:32:38;32.30;48.10
17726;DHT22;8983;53.156;17.960;2022-07-29T14:35:06;32.90;47.70
17726;DHT22;8983;53.156;17.960;2022-07-29T14:37:36;33.60;47.30
17726;DHT22;8983;53.156;17.960;2022-07-29T14:40:07;34.00;46.80
17726;DHT22;8983;53.156;17.960;2022-07-29T14:42:36;34.10;46.30
17726;DHT22;8983;53.156;17.960;2022-07-29T14:45:05;34.40;46.20
17726;DHT22;8983;53.156;17.960;2022-07-29T14:47:33;34.50;46.00
17726;DHT22;8983;53.156;17.960;2022-07-29T14:50:03;34.20;45.70
17726;DHT22;8983;53.156;17.960;2022-07-29T14:52:31;34.20;45.80
17726;DHT22;8983;53.156;17.960;2022-07-29T14:55:01;34.20;45.70
17726;DHT22;8983;53.156;17.960;2022-07-29T14:57:29;34.00;45.40
17726;DHT22;8983;53.156;17.960;2022-07-29T14:59:57;33.60;44.90
17726;DHT22;8983;53.156;17.960;2022-07-29T15:02:25;33.10;45.40
17726;DHT22;8983;53.156;17.960;2022-07-29T15:05:11;32.80;45.90
17726;DHT22;8983;53.156;17.960;2022-07-29T15:07:39;32.80;46.20
17726;DHT22;8983;53.156;17.960;2022-07-29T15:10:09;33.00;46.50
17726;DHT22;8983;53.156;17.960;2022-07-29T15:12:41;33.20;46.30
17726;DHT22;8983;53.156;17.960;2022-07-29T15:15:09;33.10;46.00
17726;DHT22;8983;53.156;17.960;2022-07-29T15:17:37;33.30;45.90
17726;DHT22;8983;53.156;17.960;2022-07-29T15:20:06;33.50;45.60
17726;DHT22;8983;53.156;17.960;2022-07-29T15:22:34;33.40;45.40
17726;DHT22;8983;53.156;17.960;2022-07-29T15:25:04;33.30;45.40
17726;DHT22;8983;53.156;17.960;2022-07-29T15:27:34;33.20;45.20
17726;DHT22;8983;53.156;17.960;2022-07-29T15:30:02;33.00;45.30
17726;DHT22;8983;53.156;17.960;2022-07-29T15:32:30;33.20;45.50
17726;DHT22;8983;53.156;17.960;2022-07-29T15:34:59;33.60;45.40
17726;DHT22;8983;53.156;17.960;2022-07-29T15:37:27;33.90;44.90
17726;DHT22;8983;53.156;17.960;2022-07-29T15:40:15;34.00;44.50
17726;DHT22;8983;53.156;17.960;2022-07-29T15:42:44;33.60;44.30
17726;DHT22;8983;53.156;17.960;2022-07-29T15:45:12;33.00;44.50
17726;DHT22;8983;53.156;17.960;2022-07-29T15:47:41;32.30;45.00
17726;DHT22;8983;53.156;17.960;2022-07-29T15:50:09;31.70;45.70
17726;DHT22;8983;53.156;17.960;2022-07-29T15:52:41;31.20;46.30
17726;DHT22;8983;53.156;17.960;2022-07-29T15:55:10;30.80;47.00
17726;DHT22;8983;53.156;17.960;2022-07-29T15:57:38;30.50;47.30
17726;DHT22;8983;53.156;17.960;2022-07-29T16:00:09;30.50;47.50
17726;DHT22;8983;53.156;17.960;2022-07-29T16:02:37;30.90;47.30
17726;DHT22;8983;53.156;17.960;2022-07-29T16:05:06;31.50;47.00
17726;DHT22;8983;53.156;17.960;2022-07-29T16:07:35;32.30;46.50